Fowlerville, MI

5:00 PM EDT on September 16, 2019 (GMT -0400)
Skyview | | Change Station
Active Advisory: Flood Warning

Elev 908 ft 42.68 °N, 84.12 °W | Updated 20 seconds ago

Mostly Cloudy
Mostly Cloudy
75.6 °F
Feels Like 77 °F
N
0
Wind Variable Wind from NNW
Gusts 0.0 mph

Today
High -- | Low -- °F
--% Chance of Precip.
Yesterday
High -- | Low -- °F
Precip. -- in
Pressure 30.10 in
Visibility 10.0 miles
Clouds Scattered Clouds 4500 ft
Mostly Cloudy 5000 ft
Heat Index 77 °F
Dew Point 65 °F
Humidity 69%
Rainfall 0.00 in
Snow Depth Not available.
7:16 AM 7:44 PM
Waning Gibbous, 94% visible
METAR KOZW 162056Z AUTO 34005KT 10SM SCT045 BKN050 25/16 A3010 RMK AO2 T02530163
Pressure 30.10 in
Visibility 10.0 miles
Clouds Scattered Clouds 4500 ft
Mostly Cloudy 5000 ft
Heat Index 77 °F
Dew Point 65 °F
Humidity 69%
Rainfall 0.00 in
Snow Depth Not available.
7:16 AM 7:44 PM
Waning Gibbous, 94% visible
METAR KOZW 162056Z AUTO 34005KT 10SM SCT045 BKN050 25/16 A3010 RMK AO2 T02530163

Get Your Daily Forecast Email!

Thanks for signing up!

Be on the lookout for a verification email in your inbox.

You'll start receiving severe weather alerts in your inbox..

×

10-Day Weather Forecast

Almanac

Astronomy

Sep. 16, 2019 Rise Set
Actual Time
Civil Twilight
Nautical Twilight
Astronomical Twilight
Moon
Length of Visible Light
Length of Day
Tomorrow will be .
, % of the Moon is Illuminated

Today's Extremes

State Highs State Lows

Community

WunderPhotos

Category 6

Welcome to Category 6. This is the collective home for Weather Underground's featured writeups by Dr. Jeff Masters (right), Bob Henson (left), Chris Burt, and other regular contributors.

Nearby

Air Quality

  Air Quality AQ Index Pollutant
Not available.

Snow Depth

Station Depth Elevation

Earthquake Activity

City Distance Mag. Time & Date
Minimum magnitude displayed is 2.5.

Coastal Water Temperatures

Place Temperature

Stations

Nearby Weather Stations

Station Location Temp. Windchill Dew Point Humidity Wind Precip. Elev Updated Type
                   

Watches & Warnings

Flood Warning
Issued: 1:54 PM EDT Sep. 16, 2019 – National Weather Service

A Flood Warning continues for
Huron river near Hamburg..
* from now until further notice.
* At 1 PM Monday the stage is 6.7 feet and steady.
* Flood stage is 6.5 feet.
* Minor flooding is occurring.
* Forecast... the river is at crest and should begin
falling late Wednesday and go below flood stage Friday morning.


Lat... Lon 4250 8376 4245 8374 4243 8381 4243 8393



Precautionary/preparedness actions...

Safety message... turn around..don't drown!